Time;durP1;ratioP1;P1;durP2;ratioP2;P2;SDS_P1;SDS_P2;PMS_P1;PMS_P2;Temp;Humidity;BMP_temperature;BMP_pressure;BME280_temperature;BME280_humidity;BME280_pressure;Samples;Min_cycle;Max_cycle;Signal;HPM_P1;HPM_P2
2024/03/15 00:02:20;;;;;;;655.30;621.47;;;13.00;95.20;;;;;;5073453;28;20407;-69
2024/03/15 00:04:45;;;;;;;598.20;567.13;;;13.00;96.40;;;;;;5071284;28;20420;-69
2024/03/15 00:07:11;;;;;;;592.10;561.97;;;13.00;96.80;;;;;;5071439;28;20401;-69
2024/03/15 00:09:37;;;;;;;683.70;648.23;;;13.10;97.00;;;;;;5071357;28;20568;-69
2024/03/15 00:12:02;;;;;;;634.57;602.10;;;13.10;96.70;;;;;;5071462;28;20248;-69
2024/03/15 00:14:28;;;;;;;581.63;551.77;;;13.10;95.60;;;;;;5071137;28;20179;-69
2024/03/15 00:16:54;;;;;;;601.03;570.43;;;13.10;93.50;;;;;;5071435;28;20178;-69
2024/03/15 00:19:21;;;;;;;554.17;526.57;;;13.10;93.60;;;;;;5071496;28;20226;-69
2024/03/15 00:21:47;;;;;;;575.20;546.37;;;13.10;93.50;;;;;;5071357;28;20404;-69
2024/03/15 00:24:13;;;;;;;583.83;554.43;;;13.20;94.10;;;;;;5071069;28;20806;-69
2024/03/15 00:26:39;;;;;;;549.17;521.30;;;13.10;93.80;;;;;;5071403;28;20779;-69
2024/03/15 00:29:05;;;;;;;579.10;549.83;;;13.20;92.60;;;;;;5071241;28;20542;-69
2024/03/15 00:31:31;;;;;;;613.67;581.77;;;13.20;92.40;;;;;;5075340;28;20417;-70
2024/03/15 00:33:57;;;;;;;694.57;657.60;;;13.20;92.40;;;;;;5075340;28;20195;-69
2024/03/15 00:36:24;;;;;;;682.93;647.10;;;13.30;93.80;;;;;;5074961;28;20477;-69
2024/03/15 00:38:52;;;;;;;694.70;657.73;;;13.60;82.80;;;;;;5075155;28;20432;-69
2024/03/15 00:41:18;;;;;;;605.97;575.57;;;13.80;69.50;;;;;;5075154;28;20505;-69
2024/03/15 00:43:45;;;;;;;566.73;538.47;;;14.00;60.40;;;;;;5075092;28;20444;-69
2024/03/15 00:46:11;;;;;;;578.87;549.27;;;14.20;53.80;;;;;;5074948;28;20415;-69
2024/03/15 00:48:36;;;;;;;586.87;557.50;;;14.50;56.40;;;;;;5074840;28;20456;-69
2024/03/15 00:51:04;;;;;;;556.60;528.40;;;14.50;42.70;;;;;;5074920;28;20442;-70
2024/03/15 00:53:30;;;;;;;530.50;503.73;;;14.50;38.40;;;;;;5074900;28;20236;-70
2024/03/15 00:55:56;;;;;;;515.67;489.67;;;14.60;35.80;;;;;;5074528;28;20467;-70
2024/03/15 00:58:22;;;;;;;446.67;424.37;;;14.80;31.00;;;;;;5074730;28;20490;-70
2024/03/15 01:00:48;;;;;;;470.03;446.23;;;14.80;29.00;;;;;;5074616;28;20441;-70
2024/03/15 01:03:18;;;;;;;476.40;452.57;;;14.80;26.90;;;;;;5074844;28;20194;-70
2024/03/15 01:05:44;;;;;;;480.77;456.93;;;14.80;26.40;;;;;;5074370;28;20399;-70
2024/03/15 01:08:10;;;;;;;469.80;446.50;;;14.80;25.50;;;;;;5074491;28;20531;-70
2024/03/15 01:10:36;;;;;;;472.33;448.73;;;14.80;26.00;;;;;;5074419;28;20428;-70
2024/03/15 01:13:03;;;;;;;477.07;453.43;;;14.80;26.40;;;;;;5074749;28;20224;-70
2024/03/15 01:15:29;;;;;;;484.43;460.47;;;14.80;25.50;;;;;;5074240;28;20651;-70
2024/03/15 01:17:55;;;;;;;446.30;424.00;;;14.90;23.80;;;;;;5074498;28;20405;-70
2024/03/15 01:20:20;;;;;;;471.90;448.43;;;15.10;22.00;;;;;;5074297;28;20805;-70
2024/03/15 01:22:47;;;;;;;428.87;407.20;;;15.00;21.50;;;;;;5074380;28;20235;-70
2024/03/15 01:25:13;;;;;;;421.57;400.23;;;15.10;21.50;;;;;;5074000;28;20170;-70
2024/03/15 01:27:39;;;;;;;477.00;453.27;;;14.90;22.30;;;;;;5074264;28;20868;-70
2024/03/15 01:30:05;;;;;;;470.10;446.40;;;14.80;23.20;;;;;;5074270;28;20496;-70
2024/03/15 01:32:31;;;;;;;472.97;449.70;;;14.80;24.20;;;;;;5074241;28;20182;-70
2024/03/15 01:34:57;;;;;;;452.70;430.10;;;14.80;24.20;;;;;;5074033;28;20470;-70
2024/03/15 01:37:23;;;;;;;461.27;437.97;;;14.70;24.60;;;;;;5074200;28;20410;-70
2024/03/15 01:39:48;;;;;;;426.27;404.43;;;14.70;26.10;;;;;;5073822;28;20198;-70
2024/03/15 01:42:15;;;;;;;460.30;437.33;;;14.60;26.90;;;;;;5073716;28;20178;-70
2024/03/15 01:44:56;;;;;;;449.63;427.23;;;14.80;25.10;;;;;;5073756;28;20227;-70
2024/03/15 01:47:26;;;;;;;442.83;420.43;;;14.80;23.60;;;;;;5073944;28;20412;-70
2024/03/15 01:49:53;;;;;;;433.47;411.70;;;14.80;22.40;;;;;;5073853;28;20536;-70
2024/03/15 01:52:20;;;;;;;448.90;426.70;;;14.80;23.20;;;;;;5073679;28;20412;-70
2024/03/15 01:54:46;;;;;;;426.67;405.17;;;14.80;22.30;;;;;;5073764;28;20398;-70
2024/03/15 01:57:13;;;;;;;424.43;403.00;;;14.80;22.10;;;;;;5073764;28;20404;-70
2024/03/15 01:59:39;;;;;;;397.93;377.43;;;14.90;21.60;;;;;;5073664;28;20523;-70
2024/03/15 02:02:05;;;;;;;407.77;386.93;;;14.80;21.50;;;;;;5073674;28;20541;-70
2024/03/15 02:04:31;;;;;;;429.60;408.03;;;14.80;21.70;;;;;;5073332;28;20178;-70
2024/03/15 02:06:57;;;;;;;415.40;393.97;;;14.70;23.00;;;;;;5073469;28;20415;-70
2024/03/15 02:09:24;;;;;;;407.30;386.47;;;14.70;23.50;;;;;;5073256;28;20291;-70
2024/03/15 02:11:51;;;;;;;421.43;400.30;;;14.60;24.50;;;;;;5073485;28;20405;-70
2024/03/15 02:14:16;;;;;;;426.67;405.17;;;14.50;24.60;;;;;;5073089;28;20413;-70
2024/03/15 02:16:42;;;;;;;445.90;423.80;;;14.60;25.80;;;;;;5073407;28;20418;-70
2024/03/15 02:19:09;;;;;;;425.67;403.90;;;14.70;24.60;;;;;;5073239;28;20312;-70
2024/03/15 02:21:35;;;;;;;419.30;397.60;;;14.60;24.50;;;;;;5073216;28;20205;-70
2024/03/15 02:24:01;;;;;;;414.97;393.97;;;14.60;25.10;;;;;;5073191;28;20943;-70
2024/03/15 02:26:27;;;;;;;421.83;400.37;;;14.50;26.40;;;;;;5072915;28;20175;-70
2024/03/15 02:28:53;;;;;;;430.53;408.77;;;14.50;26.60;;;;;;5072978;28;20518;-70
2024/03/15 02:31:21;;;;;;;504.07;478.80;;;14.50;26.50;;;;;;5073102;28;20211;-69
2024/03/15 02:33:47;;;;;;;399.27;378.83;;;14.50;25.70;;;;;;5072979;28;20791;-70
2024/03/15 02:36:15;;;;;;;394.87;374.77;;;14.60;24.80;;;;;;5072645;28;20437;-70
2024/03/15 02:38:41;;;;;;;428.30;406.90;;;14.60;38.60;;;;;;5072900;28;20417;-70
2024/03/15 02:41:09;;;;;;;429.40;407.80;;;14.50;25.20;;;;;;5072765;28;20416;-70
2024/03/15 02:43:38;;;;;;;433.50;411.67;;;14.50;25.80;;;;;;5072851;28;20501;-70
2024/03/15 02:46:05;;;;;;;416.80;395.60;;;14.50;26.40;;;;;;5072576;28;20405;-70
2024/03/15 02:48:32;;;;;;;411.00;390.13;;;14.50;26.40;;;;;;5072428;28;20506;-70
2024/03/15 02:50:58;;;;;;;415.17;393.90;;;14.40;27.90;;;;;;5072855;28;20484;-70
2024/03/15 02:53:25;;;;;;;419.27;398.17;;;14.40;28.10;;;;;;5071803;28;20407;-70
2024/03/15 02:55:50;;;;;;;455.13;432.37;;;14.40;28.70;;;;;;5072344;28;20409;-70
2024/03/15 02:58:19;;;;;;;441.47;419.00;;;14.40;27.80;;;;;;5072559;28;20424;-70
2024/03/15 03:00:46;;;;;;;473.03;449.60;;;14.40;27.10;;;;;;5072401;28;20567;-69
2024/03/15 03:03:12;;;;;;;428.47;406.60;;;14.50;25.10;;;;;;5072117;28;20415;-70
2024/03/15 03:05:39;;;;;;;411.33;390.10;;;14.60;24.50;;;;;;5072096;28;20420;-70
2024/03/15 03:08:04;;;;;;;431.60;409.93;;;14.50;24.70;;;;;;5072284;28;20482;-70
2024/03/15 03:10:30;;;;;;;426.33;404.97;;;14.60;23.60;;;;;;5072259;28;20438;-70
2024/03/15 03:12:56;;;;;;;393.10;372.83;;;14.60;22.90;;;;;;5072216;28;20412;-70
2024/03/15 03:15:22;;;;;;;435.20;412.90;;;14.60;23.10;;;;;;5071950;28;20402;-70
2024/03/15 03:17:48;;;;;;;432.23;410.53;;;14.60;23.40;;;;;;5072133;28;20209;-70
2024/03/15 03:20:20;;;;;;;411.27;390.60;;;14.60;23.20;;;;;;5072057;28;20471;-70
2024/03/15 03:22:48;;;;;;;412.97;391.67;;;14.60;23.50;;;;;;5072263;28;20687;-70
2024/03/15 03:25:15;;;;;;;395.57;375.00;;;14.60;22.30;;;;;;5071955;28;20413;-70
2024/03/15 03:27:40;;;;;;;411.80;390.60;;;14.60;21.40;;;;;;5072017;28;20413;-70
2024/03/15 03:30:07;;;;;;;411.33;390.53;;;14.70;22.00;;;;;;5071970;28;20944;-70
2024/03/15 03:32:35;;;;;;;415.40;394.43;;;14.50;1.00;;;;;;5071938;28;20398;-70
2024/03/15 03:35:03;;;;;;;401.33;380.87;;;14.60;45.70;;;;;;5071879;28;20427;-70
2024/03/15 03:37:28;;;;;;;422.13;400.83;;;14.70;1.00;;;;;;5072058;28;20405;-70
2024/03/15 03:39:54;;;;;;;506.43;480.73;;;14.70;99.90;;;;;;5071797;28;20490;-70
2024/03/15 03:42:20;;;;;;;422.03;400.27;;;14.80;1.00;;;;;;5071886;28;20178;-70
2024/03/15 03:44:45;;;;;;;431.17;409.50;;;14.70;1.00;;;;;;5071499;28;20183;-70
2024/03/15 03:47:11;;;;;;;440.27;418.20;;;14.70;1.00;;;;;;5071812;28;20491;-70
2024/03/15 03:49:38;;;;;;;417.83;396.73;;;14.70;1.00;;;;;;5071758;28;20207;-70
2024/03/15 03:52:03;;;;;;;438.70;416.70;;;14.70;99.90;;;;;;5071890;28;20828;-70
2024/03/15 03:54:30;;;;;;;416.03;394.87;;;14.80;99.90;;;;;;5071411;28;20412;-70
2024/03/15 03:56:57;;;;;;;391.67;371.73;;;14.80;4.50;;;;;;5071694;28;20175;-70
2024/03/15 03:59:22;;;;;;;410.23;389.33;;;14.80;1.00;;;;;;5071473;28;20433;-70
2024/03/15 04:01:48;;;;;;;399.80;379.43;;;14.80;91.00;;;;;;5071477;28;20408;-70
2024/03/15 04:04:14;;;;;;;439.90;417.83;;;14.60;15.80;;;;;;5071159;28;20171;-70
2024/03/15 04:06:47;;;;;;;439.53;417.43;;;14.60;99.90;;;;;;5071521;28;20173;-70
2024/03/15 04:09:12;;;;;;;418.30;396.40;;;14.60;1.00;;;;;;5071273;28;20497;-70
2024/03/15 04:11:38;;;;;;;426.90;405.10;;;14.60;52.90;;;;;;5071510;28;20439;-70
2024/03/15 04:14:04;;;;;;;424.27;402.43;;;14.80;99.90;;;;;;5071355;28;20169;-70
2024/03/15 04:16:30;;;;;;;416.70;395.30;;;14.60;99.90;;;;;;5071171;28;20161;-70
2024/03/15 04:18:57;;;;;;;637.07;602.53;;;14.70;99.90;;;;;;5071416;28;20219;-70
2024/03/15 04:21:23;;;;;;;420.47;399.27;;;14.80;56.90;;;;;;5071500;28;20774;-70
2024/03/15 04:23:49;;;;;;;450.43;427.60;;;14.70;1.00;;;;;;5071328;28;20411;-70
2024/03/15 04:26:15;;;;;;;417.10;395.70;;;14.70;1.00;;;;;;5071121;28;20269;-70
2024/03/15 04:28:41;;;;;;;439.63;417.63;;;14.90;1.00;;;;;;5071053;28;20200;-69
2024/03/15 04:31:07;;;;;;;441.47;419.00;;;14.70;99.90;;;;;;5071212;28;20416;-70
2024/03/15 04:33:35;;;;;;;435.00;412.97;;;14.70;99.90;;;;;;5071507;28;20398;-70
2024/03/15 04:36:04;;;;;;;834.70;784.07;;;14.60;99.90;;;;;;5071135;28;20178;-70
2024/03/15 04:38:30;;;;;;;461.33;437.93;;;14.60;99.90;;;;;;5071220;28;20405;-70
2024/03/15 04:40:55;;;;;;;430.63;408.50;;;14.60;99.90;;;;;;5071158;28;20553;-70
2024/03/15 04:43:21;;;;;;;420.60;399.40;;;14.60;99.90;;;;;;5071136;28;20300;-69
2024/03/15 04:45:48;;;;;;;450.23;427.73;;;14.60;99.90;;;;;;5070878;28;20551;-70
2024/03/15 04:48:13;;;;;;;453.83;431.17;;;14.60;99.90;;;;;;5071233;28;20556;-70
2024/03/15 04:50:40;;;;;;;459.00;435.77;;;14.60;99.90;;;;;;5071016;28;20478;-69
2024/03/15 04:53:05;;;;;;;454.17;431.30;;;14.50;99.90;;;;;;5071120;28;20249;-70
2024/03/15 04:55:31;;;;;;;462.43;438.73;;;14.60;99.90;;;;;;5070760;28;20482;-69
2024/03/15 04:57:56;;;;;;;455.50;432.13;;;14.60;99.90;;;;;;5071071;28;20169;-70
2024/03/15 05:00:22;;;;;;;463.93;440.67;;;14.60;1.00;;;;;;5071104;28;20186;-70
2024/03/15 05:02:48;;;;;;;444.13;422.07;;;14.70;99.90;;;;;;5070947;28;20166;-70
2024/03/15 05:05:15;;;;;;;449.40;426.93;;;14.70;99.90;;;;;;5070799;28;20250;-69
2024/03/15 05:07:42;;;;;;;522.37;496.17;;;14.70;99.90;;;;;;5070781;28;20422;-70
2024/03/15 05:10:11;;;;;;;448.77;425.77;;;14.60;36.50;;;;;;5070745;28;20484;-70
2024/03/15 05:12:38;;;;;;;870.00;806.97;;;14.60;99.90;;;;;;5071033;28;20401;-69
2024/03/15 05:15:04;;;;;;;501.00;476.03;;;14.70;99.90;;;;;;5070778;28;20984;-70
2024/03/15 05:17:30;;;;;;;444.00;421.63;;;14.60;99.90;;;;;;5074477;28;20468;-69
2024/03/15 05:19:56;;;;;;;470.20;446.23;;;14.60;99.90;;;;;;5074290;28;20825;-70
2024/03/15 05:22:24;;;;;;;476.47;452.73;;;14.60;99.90;;;;;;5074375;28;20407;-70
2024/03/15 05:24:50;;;;;;;455.57;432.80;;;14.60;99.90;;;;;;5074100;28;20179;-71
2024/03/15 05:27:16;;;;;;;492.30;467.60;;;14.60;1.00;;;;;;5074678;28;20915;-70
2024/03/15 05:29:41;;;;;;;495.23;470.57;;;14.60;99.90;;;;;;5074255;28;20532;-71
2024/03/15 05:32:07;;;;;;;464.90;441.20;;;14.70;99.90;;;;;;5074415;28;20167;-69
2024/03/15 05:34:32;;;;;;;440.67;418.50;;;14.60;1.00;;;;;;5074006;28;20168;-69
2024/03/15 05:36:59;;;;;;;455.33;432.57;;;14.60;1.00;;;;;;5074217;28;20263;-69
2024/03/15 05:39:28;;;;;;;470.53;447.03;;;14.50;1.00;;;;;;5074005;28;20252;-69
2024/03/15 05:41:54;;;;;;;441.70;419.40;;;14.40;1.00;;;;;;5073851;28;20423;-69
2024/03/15 05:44:19;;;;;;;717.77;678.17;;;14.20;99.90;;;;;;5073831;28;20399;-69
2024/03/15 05:46:45;;;;;;;419.33;398.00;;;14.10;1.00;;;;;;5074010;28;20182;-69
2024/03/15 05:49:12;;;;;;;475.47;451.20;;;14.10;1.00;;;;;;5073752;28;20201;-69
2024/03/15 05:51:38;;;;;;;662.73;625.47;;;14.00;1.00;;;;;;5073845;28;20267;-69
2024/03/15 05:54:03;;;;;;;722.67;682.67;;;13.90;13.60;;;;;;5073825;28;20856;-69
2024/03/15 05:56:29;;;;;;;381.63;361.57;;;13.90;12.20;;;;;;5073657;28;20166;-69
2024/03/15 05:58:55;;;;;;;472.40;448.07;;;13.80;12.70;;;;;;5073598;28;20220;-69
2024/03/15 06:01:20;;;;;;;415.60;394.43;;;13.80;1.00;;;;;;5073688;28;20178;-69
2024/03/15 06:03:46;;;;;;;442.40;419.70;;;13.80;1.00;;;;;;5073620;28;20166;-69
2024/03/15 06:06:12;;;;;;;518.77;492.77;;;13.80;1.00;;;;;;5073417;28;20170;-69
2024/03/15 06:08:37;;;;;;;576.67;547.67;;;13.70;1.00;;;;;;5073209;28;20284;-69
2024/03/15 06:11:04;;;;;;;596.93;566.37;;;13.70;1.00;;;;;;5073685;28;20797;-69
2024/03/15 06:13:29;;;;;;;513.67;488.00;;;13.70;99.90;;;;;;5073378;28;20164;-69
2024/03/15 06:15:55;;;;;;;572.43;544.03;;;13.80;1.00;;;;;;5073219;28;20411;-69
2024/03/15 06:18:21;;;;;;;512.20;486.03;;;13.80;99.90;;;;;;5073394;28;20434;-69
2024/03/15 06:20:47;;;;;;;573.47;544.27;;;13.80;1.00;;;;;;5073191;28;20187;-69
2024/03/15 06:23:12;;;;;;;558.53;530.03;;;13.80;1.00;;;;;;5073098;28;20174;-69
2024/03/15 06:25:40;;;;;;;631.37;598.47;;;13.90;99.90;;;;;;5072936;28;20554;-69
2024/03/15 06:28:10;;;;;;;676.80;642.20;;;13.90;1.00;;;;;;5072979;28;20752;-69
2024/03/15 06:30:43;;;;;;;601.40;571.27;;;13.80;1.00;;;;;;5072964;28;21002;-69
2024/03/15 06:33:10;;;;;;;628.57;595.67;;;13.90;1.00;;;;;;5073115;28;20412;-69
2024/03/15 06:35:36;;;;;;;573.37;544.60;;;13.90;1.00;;;;;;5072580;28;20494;-69
2024/03/15 06:38:09;;;;;;;644.07;611.57;;;13.90;1.00;;;;;;5072927;28;20495;-69
2024/03/15 06:43:35;;;;;;;632.63;600.17;;;14.00;99.90;;;;;;5073112;28;20411;-69
2024/03/15 06:46:19;;;;;;;763.83;722.13;;;14.00;1.00;;;;;;5072406;28;20421;-69
2024/03/15 06:48:55;;;;;;;783.37;739.10;;;14.10;1.00;;;;;;5072512;28;20448;-69
2024/03/15 06:54:07;;;;;;;801.30;756.57;;;14.00;1.00;;;;;;5072814;28;20777;-69
2024/03/15 06:56:32;;;;;;;937.93;877.93;;;14.00;1.00;;;;;;5072529;28;20408;-69
2024/03/15 06:58:58;;;;;;;930.37;871.40;;;14.10;1.00;;;;;;5072459;28;20417;-69
2024/03/15 07:01:23;;;;;;;547.17;519.73;;;14.00;1.00;;;;;;5072657;28;20232;-69
2024/03/15 07:03:49;;;;;;;762.70;720.60;;;14.10;14.10;;;;;;5072395;28;20168;-69
2024/03/15 07:06:20;;;;;;;604.00;573.50;;;14.20;99.90;;;;;;5072221;28;20181;-69
2024/03/15 07:08:49;;;;;;;600.77;569.47;;;14.20;1.00;;;;;;5072086;28;20213;-69
2024/03/15 07:11:15;;;;;;;590.03;559.53;;;14.20;99.90;;;;;;5072188;28;20412;-69
2024/03/15 07:13:41;;;;;;;571.93;542.93;;;14.20;1.00;;;;;;5072413;28;20815;-69
2024/03/15 07:16:07;;;;;;;544.97;517.83;;;14.20;1.00;;;;;;5072182;28;20423;-69
2024/03/15 07:18:33;;;;;;;769.97;727.03;;;13.80;1.00;;;;;;5072097;28;20662;-69
2024/03/15 07:20:59;;;;;;;602.20;571.70;;;14.10;1.00;;;;;;5072144;28;20512;-69
2024/03/15 07:23:27;;;;;;;638.93;605.73;;;14.10;1.00;;;;;;5072077;28;20421;-69
2024/03/15 07:25:55;;;;;;;635.00;602.70;;;14.10;99.90;;;;;;5071791;28;20412;-69
2024/03/15 07:28:21;;;;;;;658.00;623.93;;;14.10;99.90;;;;;;5071927;28;20447;-69
2024/03/15 07:30:50;;;;;;;770.73;727.57;;;14.10;1.00;;;;;;5072100;28;20959;-69
2024/03/15 07:33:18;;;;;;;675.20;639.50;;;14.10;99.90;;;;;;5072124;28;20225;-69
2024/03/15 07:35:46;;;;;;;678.53;643.27;;;14.20;99.90;;;;;;5071767;28;20471;-69
2024/03/15 07:38:12;;;;;;;688.63;652.57;;;14.20;99.90;;;;;;5071472;28;20788;-69
2024/03/15 07:40:38;;;;;;;694.60;657.20;;;14.20;99.90;;;;;;5071816;28;20432;-69
2024/03/15 07:43:04;;;;;;;700.57;662.97;;;14.20;1.00;;;;;;5071947;28;20828;-69
2024/03/15 07:45:30;;;;;;;735.33;696.30;;;14.20;90.30;;;;;;5071569;28;20955;-69
2024/03/15 07:47:56;;;;;;;741.73;701.77;;;14.20;1.00;;;;;;5071663;28;20229;-69
2024/03/15 07:50:24;;;;;;;699.53;661.93;;;14.30;99.90;;;;;;5072122;28;20779;-69
2024/03/15 07:52:50;;;;;;;722.37;684.17;;;14.30;99.90;;;;;;5071575;28;20405;-69
2024/03/15 07:55:16;;;;;;;764.33;722.07;;;14.30;99.90;;;;;;5071546;28;20412;-69
2024/03/15 07:57:42;;;;;;;721.83;683.43;;;14.40;99.90;;;;;;5071600;28;20467;-69
2024/03/15 08:00:09;;;;;;;748.83;708.67;;;14.40;99.90;;;;;;5071690;28;20742;-69
2024/03/15 08:02:35;;;;;;;782.20;739.27;;;14.40;99.90;;;;;;5071593;28;20834;-69
2024/03/15 08:05:00;;;;;;;723.13;683.57;;;14.40;1.00;;;;;;5071835;28;20496;-69
2024/03/15 08:07:26;;;;;;;735.33;695.37;;;14.50;99.90;;;;;;5071363;28;20417;-69
2024/03/15 08:09:52;;;;;;;777.80;734.77;;;14.50;99.90;;;;;;5071391;28;20209;-69
2024/03/15 08:12:18;;;;;;;641.60;607.33;;;14.50;99.90;;;;;;5071393;28;20258;-69
2024/03/15 08:14:44;;;;;;;742.17;702.00;;;14.60;1.00;;;;;;5071354;28;20200;-69
2024/03/15 08:17:10;;;;;;;664.90;629.30;;;14.50;1.00;;;;;;5071476;28;20877;-69
2024/03/15 08:19:36;;;;;;;787.37;743.03;;;14.50;99.90;;;;;;5071373;28;20281;-69
2024/03/15 08:22:01;;;;;;;735.93;696.10;;;14.50;99.90;;;;;;5071296;28;20406;-69
2024/03/15 08:24:27;;;;;;;769.27;726.60;;;14.50;99.90;;;;;;5071136;28;20248;-69
2024/03/15 08:26:53;;;;;;;700.23;661.17;;;14.60;1.00;;;;;;5071299;28;20184;-69
2024/03/15 08:29:21;;;;;;;748.27;706.87;;;14.60;99.90;;;;;;5071281;28;20457;-69
2024/03/15 08:31:47;;;;;;;764.27;723.10;;;14.70;99.90;;;;;;5071332;28;20405;-69
2024/03/15 08:34:14;;;;;;;868.30;819.33;;;14.80;99.90;;;;;;5070944;28;20421;-69
2024/03/15 08:36:39;;;;;;;770.83;728.03;;;14.90;1.00;;;;;;5071189;28;20393;-69
2024/03/15 08:39:10;;;;;;;702.93;665.10;;;14.90;1.00;;;;;;5071414;28;20428;-69
2024/03/15 08:41:36;;;;;;;744.93;704.03;;;15.00;99.90;;;;;;5071406;28;20717;-69
2024/03/15 08:44:03;;;;;;;764.60;723.80;;;15.00;1.00;;;;;;5071095;28;20411;-69
2024/03/15 08:46:30;;;;;;;933.90;874.03;;;15.10;99.90;;;;;;5070893;28;20408;-69
2024/03/15 08:48:56;;;;;;;871.90;822.10;;;15.10;99.90;;;;;;5070820;28;20459;-69
2024/03/15 08:51:23;;;;;;;717.20;678.07;;;15.10;1.00;;;;;;5073418;28;20404;-69
2024/03/15 08:53:49;;;;;;;718.10;679.43;;;15.10;1.00;;;;;;5075116;28;20917;-69
2024/03/15 08:56:17;;;;;;;740.73;701.37;;;15.10;99.90;;;;;;5074639;28;20412;-69
2024/03/15 08:58:43;;;;;;;717.17;680.17;;;15.00;46.70;;;;;;5074865;28;20443;-69
2024/03/15 09:01:08;;;;;;;692.27;655.97;;;15.30;99.90;;;;;;5074840;28;20429;-69
2024/03/15 09:03:34;;;;;;;836.63;789.40;;;15.30;99.90;;;;;;5074652;28;20598;-69
2024/03/15 09:06:06;;;;;;;701.97;664.47;;;15.40;99.90;;;;;;5074606;28;20261;-69
2024/03/15 09:08:35;;;;;;;653.93;619.33;;;15.40;1.00;;;;;;5074510;28;20215;-69
2024/03/15 09:11:03;;;;;;;888.83;836.10;;;15.50;99.90;;;;;;5074568;28;20947;-69
2024/03/15 09:13:29;;;;;;;615.67;584.27;;;15.50;99.90;;;;;;5073410;28;20526;-69
2024/03/15 09:15:56;;;;;;;708.87;670.90;;;15.60;1.00;;;;;;5074317;28;20400;-69
2024/03/15 09:18:22;;;;;;;636.23;603.67;;;15.60;29.90;;;;;;5074521;28;20471;-69
2024/03/15 09:20:48;;;;;;;638.50;605.60;;;15.80;1.00;;;;;;5074610;28;20425;-69
2024/03/15 09:23:14;;;;;;;739.87;700.37;;;15.80;99.90;;;;;;5074548;28;20834;-69
2024/03/15 09:25:42;;;;;;;713.73;675.73;;;15.70;99.90;;;;;;5074096;28;20202;-69
2024/03/15 09:28:09;;;;;;;737.63;697.33;;;15.70;96.50;;;;;;5074303;28;20467;-69
2024/03/15 09:30:53;;;;;;;646.97;612.97;;;15.70;99.90;;;;;;5074737;28;20428;-69
2024/03/15 09:33:19;;;;;;;705.40;666.60;;;15.80;99.90;;;;;;5074521;28;20392;-70
2024/03/15 09:35:46;;;;;;;735.83;696.40;;;15.80;1.00;;;;;;5074183;28;20535;-69
2024/03/15 09:38:15;;;;;;;707.13;668.87;;;15.80;99.90;;;;;;5074283;28;20449;-69
2024/03/15 09:40:42;;;;;;;884.00;832.00;;;15.80;1.00;;;;;;5074124;28;20931;-69
2024/03/15 09:43:13;;;;;;;881.97;829.97;;;15.80;1.00;;;;;;5074002;28;20401;-69
2024/03/15 09:45:39;;;;;;;704.07;666.63;;;15.90;1.00;;;;;;5073777;28;20934;-69
2024/03/15 09:48:10;;;;;;;681.73;646.47;;;15.90;1.00;;;;;;5073830;28;20451;-69
2024/03/15 09:50:38;;;;;;;693.43;657.57;;;16.00;1.00;;;;;;5074173;28;20420;-69
2024/03/15 09:53:04;;;;;;;699.87;663.17;;;16.10;1.00;;;;;;5073878;28;20432;-69
2024/03/15 09:55:30;;;;;;;856.53;806.73;;;16.30;1.00;;;;;;5073536;28;20528;-69
2024/03/15 09:57:57;;;;;;;650.80;616.80;;;16.40;1.00;;;;;;5073723;28;20421;-69
2024/03/15 10:00:23;;;;;;;660.03;625.67;;;16.30;1.00;;;;;;5073993;28;20191;-69
2024/03/15 10:02:53;;;;;;;614.20;582.77;;;16.30;1.00;;;;;;5073435;28;20419;-69
2024/03/15 10:05:24;;;;;;;752.67;710.53;;;16.20;1.00;;;;;;5073569;28;20282;-69
2024/03/15 10:07:50;;;;;;;654.30;619.70;;;16.20;1.00;;;;;;5073424;28;20420;-69
2024/03/15 10:10:17;;;;;;;733.13;692.60;;;16.10;1.00;;;;;;5073471;28;20844;-69
2024/03/15 10:12:49;;;;;;;683.97;648.90;;;16.20;1.00;;;;;;5073439;28;20226;-68
2024/03/15 10:15:16;;;;;;;678.80;643.30;;;16.20;1.00;;;;;;5073150;28;20405;-69
2024/03/15 10:17:46;;;;;;;634.13;601.97;;;16.30;1.00;;;;;;5073350;28;20450;-69
2024/03/15 10:20:33;;;;;;;696.87;661.00;;;16.40;1.00;;;;;;5073318;28;20464;-69
2024/03/15 10:22:59;;;;;;;639.13;606.37;;;16.50;1.00;;;;;;5073458;28;20904;-69
2024/03/15 10:25:27;;;;;;;654.97;621.37;;;16.50;1.00;;;;;;5072979;28;20408;-69
2024/03/15 10:27:56;;;;;;;609.20;578.27;;;16.70;1.00;;;;;;5073246;28;20564;-69
2024/03/15 10:30:23;;;;;;;699.60;663.20;;;16.80;2.90;;;;;;5073154;28;20510;-69
2024/03/15 10:32:54;;;;;;;610.60;579.50;;;16.80;1.00;;;;;;5073305;28;20405;-68
2024/03/15 10:35:20;;;;;;;564.90;535.40;;;16.80;1.00;;;;;;5072749;28;20424;-68
2024/03/15 10:37:50;;;;;;;1031.17;673.87;;;16.80;1.00;;;;;;5072967;28;20401;-69
2024/03/15 10:40:20;;;;;;;1999.90;999.90;;;16.90;1.00;;;;;;5073113;28;20429;-69
2024/03/15 10:42:48;;;;;;;1452.23;776.67;;;16.70;1.00;;;;;;5072822;28;20991;-69
2024/03/15 10:45:15;;;;;;;1045.27;688.80;;;16.80;1.00;;;;;;5072578;28;20754;-69
2024/03/15 10:47:42;;;;;;;1999.90;999.90;;;16.80;1.00;;;;;;5072707;28;20894;-69
2024/03/15 10:50:18;;;;;;;1999.90;999.90;;;16.80;6.80;;;;;;5072774;28;20559;-69
2024/03/15 10:52:52;;;;;;;1999.90;999.90;;;16.80;6.40;;;;;;5072708;28;20410;-69
2024/03/15 10:55:19;;;;;;;1482.77;802.93;;;16.70;9.10;;;;;;5072438;28;20398;-69
2024/03/15 10:57:46;;;;;;;658.63;622.90;;;16.40;7.80;;;;;;5072577;28;20436;-69
2024/03/15 11:00:20;;;;;;;834.57;773.53;;;16.10;10.10;;;;;;5072345;28;20436;-69
2024/03/15 11:02:49;;;;;;;799.87;752.80;;;15.90;22.90;;;;;;5071418;28;20926;-68
2024/03/15 11:05:18;;;;;;;686.40;649.37;;;15.30;48.00;;;;;;5072162;28;20443;-69
2024/03/15 11:07:46;;;;;;;708.27;670.90;;;14.90;83.30;;;;;;5072206;28;20422;-69
2024/03/15 11:10:19;;;;;;;869.20;818.33;;;14.60;99.90;;;;;;5072357;28;21015;-69
2024/03/15 11:12:50;;;;;;;777.17;734.87;;;14.40;99.90;;;;;;5071465;28;20404;-69
2024/03/15 11:15:19;;;;;;;947.70;890.40;;;14.30;99.90;;;;;;5071532;28;20405;-70
2024/03/15 11:17:44;;;;;;;859.83;811.67;;;14.30;99.90;;;;;;5072090;28;20941;-69
2024/03/15 11:20:13;;;;;;;875.00;821.93;;;14.40;99.90;;;;;;5072097;28;20437;-70
2024/03/15 11:22:39;;;;;;;767.00;724.30;;;14.60;99.90;;;;;;5072202;28;20166;-70
2024/03/15 11:25:05;;;;;;;730.53;690.47;;;14.90;99.90;;;;;;5071572;28;20413;-69
2024/03/15 11:27:58;;;;;;;789.50;746.00;;;15.40;99.90;;;;;;5071774;28;20479;-69
2024/03/15 11:30:27;;;;;;;705.00;667.13;;;15.60;90.00;;;;;;5072149;28;20429;-69
2024/03/15 11:32:54;;;;;;;678.43;643.07;;;15.70;81.70;;;;;;5072374;28;20404;-69
2024/03/15 11:35:22;;;;;;;732.50;693.33;;;15.80;79.70;;;;;;5071647;28;20770;-69
2024/03/15 11:37:55;;;;;;;752.50;711.03;;;16.10;72.00;;;;;;5071758;28;20394;-69
2024/03/15 11:40:24;;;;;;;725.87;687.40;;;16.20;55.30;;;;;;5072032;28;20493;-69
2024/03/15 11:42:50;;;;;;;742.40;701.93;;;16.40;50.70;;;;;;5072059;28;20403;-69
2024/03/15 11:45:16;;;;;;;697.20;659.70;;;16.40;42.20;;;;;;5071631;28;20391;-69
2024/03/15 11:47:41;;;;;;;683.27;647.03;;;16.40;43.00;;;;;;5071828;28;20401;-69
2024/03/15 11:50:13;;;;;;;765.87;724.13;;;16.50;39.60;;;;;;5071618;28;20579;-69
2024/03/15 11:52:39;;;;;;;1999.90;999.90;;;16.70;39.20;;;;;;5072150;28;20173;-69
2024/03/15 11:55:08;;;;;;;1999.90;999.90;;;17.40;25.40;;;;;;5071473;28;20764;-69
2024/03/15 11:57:35;;;;;;;1999.90;999.90;;;18.10;15.10;;;;;;5071811;28;20504;-69
2024/03/15 12:00:09;;;;;;;1999.90;999.90;;;18.40;5.20;;;;;;5071604;28;20430;-69
2024/03/15 12:02:36;;;;;;;1999.90;999.90;;;18.40;1.60;;;;;;5071602;28;20411;-69
2024/03/15 12:05:02;;;;;;;1999.90;999.90;;;18.30;1.00;;;;;;5071221;28;20449;-69
2024/03/15 12:07:27;;;;;;;1999.90;999.90;;;18.10;1.00;;;;;;5071385;28;20990;-69
2024/03/15 12:09:59;;;;;;;1999.90;999.90;;;17.90;1.00;;;;;;5071522;28;20213;-69
2024/03/15 12:12:25;;;;;;;1999.90;999.90;;;17.60;1.00;;;;;;5071532;28;20643;-69
2024/03/15 12:14:53;;;;;;;1999.90;999.90;;;17.50;1.00;;;;;;5071308;28;20451;-69
2024/03/15 12:17:19;;;;;;;1999.90;999.90;;;17.50;1.00;;;;;;5071507;28;20181;-69